sensor_id;sensor_type;location;lat;lon;timestamp;P1;durP1;ratioP1;P2;durP2;ratioP2
34234;SDS011;20500;49.856;20.290;2024-01-10T00:00:42;161.00;;;69.50;;
34234;SDS011;20500;49.856;20.290;2024-01-10T00:03:48;163.30;;;71.70;;
34234;SDS011;20500;49.856;20.290;2024-01-10T00:06:56;163.00;;;70.30;;
34234;SDS011;20500;49.856;20.290;2024-01-10T00:10:02;162.60;;;69.40;;
34234;SDS011;20500;49.856;20.290;2024-01-10T00:13:10;166.60;;;73.70;;
34234;SDS011;20500;49.856;20.290;2024-01-10T00:16:16;161.30;;;67.60;;
34234;SDS011;20500;49.856;20.290;2024-01-10T00:19:22;167.60;;;69.70;;
34234;SDS011;20500;49.856;20.290;2024-01-10T00:22:29;160.30;;;67.40;;
34234;SDS011;20500;49.856;20.290;2024-01-10T00:25:35;159.40;;;66.70;;
34234;SDS011;20500;49.856;20.290;2024-01-10T00:28:42;164.30;;;66.50;;
34234;SDS011;20500;49.856;20.290;2024-01-10T00:31:49;156.10;;;66.40;;
34234;SDS011;20500;49.856;20.290;2024-01-10T00:34:56;168.90;;;68.20;;
34234;SDS011;20500;49.856;20.290;2024-01-10T00:38:03;154.40;;;67.50;;
34234;SDS011;20500;49.856;20.290;2024-01-10T00:41:10;152.90;;;68.50;;
34234;SDS011;20500;49.856;20.290;2024-01-10T00:44:16;162.20;;;68.60;;
34234;SDS011;20500;49.856;20.290;2024-01-10T00:47:22;152.30;;;67.70;;
34234;SDS011;20500;49.856;20.290;2024-01-10T00:50:29;158.00;;;68.20;;
34234;SDS011;20500;49.856;20.290;2024-01-10T00:53:35;177.70;;;72.30;;
34234;SDS011;20500;49.856;20.290;2024-01-10T00:56:42;159.80;;;69.10;;
34234;SDS011;20500;49.856;20.290;2024-01-10T00:59:49;158.60;;;67.40;;
34234;SDS011;20500;49.856;20.290;2024-01-10T01:02:55;160.50;;;69.50;;
34234;SDS011;20500;49.856;20.290;2024-01-10T01:06:01;158.00;;;69.00;;
34234;SDS011;20500;49.856;20.290;2024-01-10T01:09:08;169.50;;;72.90;;
34234;SDS011;20500;49.856;20.290;2024-01-10T01:12:16;173.40;;;71.80;;
34234;SDS011;20500;49.856;20.290;2024-01-10T01:15:22;187.90;;;78.90;;
34234;SDS011;20500;49.856;20.290;2024-01-10T01:18:28;177.50;;;74.90;;
34234;SDS011;20500;49.856;20.290;2024-01-10T01:21:35;171.40;;;71.60;;
34234;SDS011;20500;49.856;20.290;2024-01-10T01:24:41;149.80;;;66.50;;
34234;SDS011;20500;49.856;20.290;2024-01-10T01:27:48;181.50;;;78.90;;
34234;SDS011;20500;49.856;20.290;2024-01-10T01:30:54;160.00;;;70.50;;
34234;SDS011;20500;49.856;20.290;2024-01-10T01:34:01;168.80;;;69.50;;
34234;SDS011;20500;49.856;20.290;2024-01-10T01:37:08;171.60;;;71.70;;
34234;SDS011;20500;49.856;20.290;2024-01-10T01:40:14;162.90;;;68.90;;
34234;SDS011;20500;49.856;20.290;2024-01-10T01:43:22;154.60;;;65.10;;
34234;SDS011;20500;49.856;20.290;2024-01-10T01:46:29;147.90;;;64.00;;
34234;SDS011;20500;49.856;20.290;2024-01-10T01:49:37;142.10;;;67.30;;
34234;SDS011;20500;49.856;20.290;2024-01-10T01:52:46;143.80;;;63.50;;
34234;SDS011;20500;49.856;20.290;2024-01-10T01:55:52;143.50;;;62.60;;
34234;SDS011;20500;49.856;20.290;2024-01-10T01:58:59;145.30;;;64.20;;
34234;SDS011;20500;49.856;20.290;2024-01-10T02:02:06;144.90;;;64.10;;
34234;SDS011;20500;49.856;20.290;2024-01-10T02:05:13;147.50;;;62.60;;
34234;SDS011;20500;49.856;20.290;2024-01-10T02:08:21;146.20;;;63.50;;
34234;SDS011;20500;49.856;20.290;2024-01-10T02:11:28;153.70;;;65.50;;
34234;SDS011;20500;49.856;20.290;2024-01-10T02:14:34;145.10;;;64.60;;
34234;SDS011;20500;49.856;20.290;2024-01-10T02:17:40;148.10;;;67.10;;
34234;SDS011;20500;49.856;20.290;2024-01-10T02:20:47;166.30;;;66.60;;
34234;SDS011;20500;49.856;20.290;2024-01-10T02:23:53;156.00;;;66.00;;
34234;SDS011;20500;49.856;20.290;2024-01-10T02:27:00;147.80;;;61.90;;
34234;SDS011;20500;49.856;20.290;2024-01-10T02:30:07;148.80;;;64.80;;
34234;SDS011;20500;49.856;20.290;2024-01-10T02:33:15;155.80;;;66.60;;
34234;SDS011;20500;49.856;20.290;2024-01-10T02:36:21;139.70;;;63.50;;
34234;SDS011;20500;49.856;20.290;2024-01-10T02:39:28;155.30;;;64.50;;
34234;SDS011;20500;49.856;20.290;2024-01-10T02:42:35;158.70;;;64.80;;
34234;SDS011;20500;49.856;20.290;2024-01-10T02:45:41;167.50;;;70.80;;
34234;SDS011;20500;49.856;20.290;2024-01-10T02:48:48;166.40;;;73.30;;
34234;SDS011;20500;49.856;20.290;2024-01-10T02:51:54;152.70;;;66.80;;
34234;SDS011;20500;49.856;20.290;2024-01-10T02:55:00;154.10;;;64.80;;
34234;SDS011;20500;49.856;20.290;2024-01-10T02:58:07;151.20;;;64.70;;
34234;SDS011;20500;49.856;20.290;2024-01-10T03:01:15;144.80;;;62.20;;
34234;SDS011;20500;49.856;20.290;2024-01-10T03:04:21;148.40;;;65.00;;
34234;SDS011;20500;49.856;20.290;2024-01-10T03:07:28;145.00;;;65.30;;
34234;SDS011;20500;49.856;20.290;2024-01-10T03:10:34;154.70;;;64.30;;
34234;SDS011;20500;49.856;20.290;2024-01-10T03:13:41;162.80;;;66.40;;
34234;SDS011;20500;49.856;20.290;2024-01-10T03:16:48;154.80;;;66.30;;
34234;SDS011;20500;49.856;20.290;2024-01-10T03:19:54;156.70;;;64.70;;
34234;SDS011;20500;49.856;20.290;2024-01-10T03:23:01;154.90;;;65.50;;
34234;SDS011;20500;49.856;20.290;2024-01-10T03:26:08;138.90;;;59.60;;
34234;SDS011;20500;49.856;20.290;2024-01-10T03:29:15;134.10;;;57.90;;
34234;SDS011;20500;49.856;20.290;2024-01-10T03:32:22;138.50;;;58.20;;
34234;SDS011;20500;49.856;20.290;2024-01-10T03:35:28;128.20;;;59.10;;
34234;SDS011;20500;49.856;20.290;2024-01-10T03:38:35;142.80;;;61.30;;
34234;SDS011;20500;49.856;20.290;2024-01-10T03:41:41;143.20;;;59.50;;
34234;SDS011;20500;49.856;20.290;2024-01-10T03:44:47;137.70;;;57.30;;
34234;SDS011;20500;49.856;20.290;2024-01-10T03:47:54;144.10;;;59.20;;
34234;SDS011;20500;49.856;20.290;2024-01-10T03:51:01;147.40;;;57.00;;
34234;SDS011;20500;49.856;20.290;2024-01-10T03:54:07;127.70;;;57.40;;
34234;SDS011;20500;49.856;20.290;2024-01-10T03:57:14;139.90;;;56.70;;
34234;SDS011;20500;49.856;20.290;2024-01-10T04:00:20;124.30;;;54.70;;
34234;SDS011;20500;49.856;20.290;2024-01-10T04:03:28;131.20;;;56.70;;
34234;SDS011;20500;49.856;20.290;2024-01-10T04:06:34;129.70;;;55.30;;
34234;SDS011;20500;49.856;20.290;2024-01-10T04:09:40;142.10;;;56.70;;
34234;SDS011;20500;49.856;20.290;2024-01-10T04:12:47;132.00;;;59.70;;
34234;SDS011;20500;49.856;20.290;2024-01-10T04:15:54;121.10;;;54.30;;
34234;SDS011;20500;49.856;20.290;2024-01-10T04:19:00;131.40;;;53.80;;
34234;SDS011;20500;49.856;20.290;2024-01-10T04:22:07;142.20;;;57.30;;
34234;SDS011;20500;49.856;20.290;2024-01-10T04:25:13;115.90;;;54.50;;
34234;SDS011;20500;49.856;20.290;2024-01-10T04:28:20;125.10;;;54.30;;
34234;SDS011;20500;49.856;20.290;2024-01-10T04:31:26;124.10;;;54.10;;
34234;SDS011;20500;49.856;20.290;2024-01-10T04:34:32;132.40;;;53.20;;
34234;SDS011;20500;49.856;20.290;2024-01-10T04:37:39;125.70;;;53.20;;
34234;SDS011;20500;49.856;20.290;2024-01-10T04:40:46;129.70;;;55.80;;
34234;SDS011;20500;49.856;20.290;2024-01-10T04:43:52;122.40;;;55.30;;
34234;SDS011;20500;49.856;20.290;2024-01-10T04:46:58;138.70;;;57.70;;
34234;SDS011;20500;49.856;20.290;2024-01-10T04:50:06;121.20;;;55.00;;
34234;SDS011;20500;49.856;20.290;2024-01-10T04:53:16;127.50;;;54.50;;
34234;SDS011;20500;49.856;20.290;2024-01-10T04:56:23;121.40;;;52.90;;
34234;SDS011;20500;49.856;20.290;2024-01-10T04:59:29;117.60;;;51.80;;
34234;SDS011;20500;49.856;20.290;2024-01-10T05:02:36;142.40;;;56.30;;
34234;SDS011;20500;49.856;20.290;2024-01-10T05:05:43;118.60;;;52.50;;
34234;SDS011;20500;49.856;20.290;2024-01-10T05:08:50;126.80;;;51.00;;
34234;SDS011;20500;49.856;20.290;2024-01-10T05:12:01;125.80;;;52.90;;
34234;SDS011;20500;49.856;20.290;2024-01-10T05:15:08;130.10;;;55.10;;
34234;SDS011;20500;49.856;20.290;2024-01-10T05:18:15;136.20;;;55.90;;
34234;SDS011;20500;49.856;20.290;2024-01-10T05:21:22;126.80;;;54.30;;
34234;SDS011;20500;49.856;20.290;2024-01-10T05:24:29;128.70;;;56.50;;
34234;SDS011;20500;49.856;20.290;2024-01-10T05:27:36;129.10;;;55.50;;
34234;SDS011;20500;49.856;20.290;2024-01-10T05:30:42;120.50;;;53.90;;
34234;SDS011;20500;49.856;20.290;2024-01-10T05:33:49;128.40;;;55.00;;
34234;SDS011;20500;49.856;20.290;2024-01-10T05:36:56;128.80;;;55.80;;
34234;SDS011;20500;49.856;20.290;2024-01-10T05:40:03;130.20;;;57.20;;
34234;SDS011;20500;49.856;20.290;2024-01-10T05:43:11;123.50;;;54.40;;
34234;SDS011;20500;49.856;20.290;2024-01-10T05:46:18;132.00;;;58.50;;
34234;SDS011;20500;49.856;20.290;2024-01-10T05:49:25;133.70;;;58.80;;
34234;SDS011;20500;49.856;20.290;2024-01-10T05:52:31;128.30;;;56.80;;
34234;SDS011;20500;49.856;20.290;2024-01-10T05:55:38;144.70;;;60.70;;
34234;SDS011;20500;49.856;20.290;2024-01-10T05:58:44;129.20;;;60.50;;
34234;SDS011;20500;49.856;20.290;2024-01-10T06:01:53;121.50;;;53.80;;
34234;SDS011;20500;49.856;20.290;2024-01-10T06:05:00;117.50;;;52.20;;
34234;SDS011;20500;49.856;20.290;2024-01-10T06:08:09;123.10;;;52.90;;
34234;SDS011;20500;49.856;20.290;2024-01-10T06:11:17;140.40;;;58.60;;
34234;SDS011;20500;49.856;20.290;2024-01-10T06:14:24;149.00;;;63.50;;
34234;SDS011;20500;49.856;20.290;2024-01-10T06:17:30;139.70;;;61.70;;
34234;SDS011;20500;49.856;20.290;2024-01-10T06:20:37;153.80;;;61.40;;
34234;SDS011;20500;49.856;20.290;2024-01-10T06:23:44;167.50;;;70.90;;
34234;SDS011;20500;49.856;20.290;2024-01-10T06:26:50;159.80;;;68.30;;
34234;SDS011;20500;49.856;20.290;2024-01-10T06:29:57;136.80;;;60.40;;
34234;SDS011;20500;49.856;20.290;2024-01-10T06:33:03;143.90;;;61.80;;
34234;SDS011;20500;49.856;20.290;2024-01-10T06:36:11;175.10;;;74.30;;
34234;SDS011;20500;49.856;20.290;2024-01-10T06:39:17;168.80;;;68.10;;
34234;SDS011;20500;49.856;20.290;2024-01-10T06:42:24;139.10;;;61.90;;
34234;SDS011;20500;49.856;20.290;2024-01-10T06:45:30;148.30;;;64.50;;
34234;SDS011;20500;49.856;20.290;2024-01-10T06:48:37;138.10;;;58.40;;
34234;SDS011;20500;49.856;20.290;2024-01-10T06:51:45;148.00;;;62.60;;
34234;SDS011;20500;49.856;20.290;2024-01-10T06:54:51;162.30;;;69.30;;
34234;SDS011;20500;49.856;20.290;2024-01-10T06:57:58;141.50;;;61.60;;
34234;SDS011;20500;49.856;20.290;2024-01-10T07:01:04;138.90;;;59.60;;
34234;SDS011;20500;49.856;20.290;2024-01-10T07:04:17;131.70;;;61.40;;
34234;SDS011;20500;49.856;20.290;2024-01-10T07:07:27;135.40;;;60.00;;
34234;SDS011;20500;49.856;20.290;2024-01-10T07:10:33;132.00;;;57.70;;
34234;SDS011;20500;49.856;20.290;2024-01-10T07:13:41;143.50;;;63.10;;
34234;SDS011;20500;49.856;20.290;2024-01-10T07:16:48;180.40;;;79.00;;
34234;SDS011;20500;49.856;20.290;2024-01-10T07:19:55;179.40;;;82.30;;
34234;SDS011;20500;49.856;20.290;2024-01-10T07:23:02;148.60;;;67.50;;
34234;SDS011;20500;49.856;20.290;2024-01-10T07:26:08;138.40;;;61.90;;
34234;SDS011;20500;49.856;20.290;2024-01-10T07:29:17;141.40;;;60.40;;
34234;SDS011;20500;49.856;20.290;2024-01-10T07:32:23;158.20;;;66.50;;
34234;SDS011;20500;49.856;20.290;2024-01-10T07:35:30;160.60;;;71.10;;
34234;SDS011;20500;49.856;20.290;2024-01-10T07:38:37;147.90;;;64.70;;
34234;SDS011;20500;49.856;20.290;2024-01-10T07:41:43;146.80;;;66.40;;
34234;SDS011;20500;49.856;20.290;2024-01-10T07:44:50;135.00;;;62.70;;
34234;SDS011;20500;49.856;20.290;2024-01-10T07:47:56;146.20;;;64.90;;
34234;SDS011;20500;49.856;20.290;2024-01-10T07:51:04;150.90;;;64.70;;
34234;SDS011;20500;49.856;20.290;2024-01-10T07:54:10;163.60;;;73.10;;
34234;SDS011;20500;49.856;20.290;2024-01-10T07:57:17;152.50;;;64.90;;
34234;SDS011;20500;49.856;20.290;2024-01-10T08:00:24;166.90;;;72.50;;
34234;SDS011;20500;49.856;20.290;2024-01-10T08:03:30;155.00;;;71.90;;
34234;SDS011;20500;49.856;20.290;2024-01-10T08:06:38;155.90;;;71.90;;
34234;SDS011;20500;49.856;20.290;2024-01-10T08:09:45;158.40;;;68.10;;
34234;SDS011;20500;49.856;20.290;2024-01-10T08:12:51;160.80;;;66.60;;
34234;SDS011;20500;49.856;20.290;2024-01-10T08:15:59;155.30;;;67.40;;
34234;SDS011;20500;49.856;20.290;2024-01-10T08:19:06;148.30;;;68.40;;
34234;SDS011;20500;49.856;20.290;2024-01-10T08:22:14;156.30;;;68.70;;
34234;SDS011;20500;49.856;20.290;2024-01-10T08:25:20;160.50;;;66.40;;
34234;SDS011;20500;49.856;20.290;2024-01-10T08:28:27;143.40;;;62.60;;
34234;SDS011;20500;49.856;20.290;2024-01-10T08:31:33;149.50;;;66.10;;
34234;SDS011;20500;49.856;20.290;2024-01-10T08:34:40;141.60;;;67.50;;
34234;SDS011;20500;49.856;20.290;2024-01-10T08:37:48;156.10;;;68.50;;
34234;SDS011;20500;49.856;20.290;2024-01-10T08:40:54;157.30;;;67.90;;
34234;SDS011;20500;49.856;20.290;2024-01-10T08:44:00;155.60;;;70.40;;
34234;SDS011;20500;49.856;20.290;2024-01-10T08:47:08;156.60;;;70.00;;
34234;SDS011;20500;49.856;20.290;2024-01-10T08:50:14;178.00;;;75.20;;
34234;SDS011;20500;49.856;20.290;2024-01-10T08:53:21;156.20;;;71.00;;
34234;SDS011;20500;49.856;20.290;2024-01-10T08:56:27;166.30;;;73.90;;
34234;SDS011;20500;49.856;20.290;2024-01-10T08:59:34;163.30;;;74.90;;
34234;SDS011;20500;49.856;20.290;2024-01-10T09:02:40;155.00;;;71.20;;
34234;SDS011;20500;49.856;20.290;2024-01-10T09:05:47;155.50;;;69.90;;
34234;SDS011;20500;49.856;20.290;2024-01-10T09:09:09;157.90;;;73.90;;
34234;SDS011;20500;49.856;20.290;2024-01-10T09:12:16;154.40;;;73.70;;
34234;SDS011;20500;49.856;20.290;2024-01-10T09:15:22;163.60;;;72.90;;
34234;SDS011;20500;49.856;20.290;2024-01-10T09:18:29;150.40;;;70.10;;
34234;SDS011;20500;49.856;20.290;2024-01-10T09:21:35;145.20;;;70.10;;
34234;SDS011;20500;49.856;20.290;2024-01-10T09:24:42;149.80;;;70.70;;
34234;SDS011;20500;49.856;20.290;2024-01-10T09:27:48;157.00;;;71.00;;
34234;SDS011;20500;49.856;20.290;2024-01-10T09:30:55;150.30;;;69.40;;
34234;SDS011;20500;49.856;20.290;2024-01-10T09:34:01;153.40;;;74.20;;
34234;SDS011;20500;49.856;20.290;2024-01-10T09:37:08;149.70;;;67.90;;
34234;SDS011;20500;49.856;20.290;2024-01-10T09:40:15;156.80;;;73.30;;
34234;SDS011;20500;49.856;20.290;2024-01-10T09:43:24;146.30;;;70.20;;
34234;SDS011;20500;49.856;20.290;2024-01-10T09:46:32;144.70;;;70.70;;
34234;SDS011;20500;49.856;20.290;2024-01-10T09:49:43;154.20;;;70.90;;
34234;SDS011;20500;49.856;20.290;2024-01-10T09:52:50;159.40;;;73.60;;
34234;SDS011;20500;49.856;20.290;2024-01-10T09:55:57;150.50;;;72.90;;
34234;SDS011;20500;49.856;20.290;2024-01-10T09:59:04;143.40;;;69.60;;
34234;SDS011;20500;49.856;20.290;2024-01-10T10:02:14;150.60;;;72.70;;
34234;SDS011;20500;49.856;20.290;2024-01-10T10:05:22;146.60;;;73.70;;
34234;SDS011;20500;49.856;20.290;2024-01-10T10:08:29;141.30;;;69.50;;
34234;SDS011;20500;49.856;20.290;2024-01-10T10:11:36;158.40;;;71.40;;
34234;SDS011;20500;49.856;20.290;2024-01-10T10:14:42;132.80;;;65.10;;
34234;SDS011;20500;49.856;20.290;2024-01-10T10:17:49;146.00;;;71.00;;
34234;SDS011;20500;49.856;20.290;2024-01-10T10:21:09;140.10;;;69.30;;
34234;SDS011;20500;49.856;20.290;2024-01-10T10:24:17;163.20;;;76.70;;
34234;SDS011;20500;49.856;20.290;2024-01-10T10:27:29;153.10;;;73.30;;
34234;SDS011;20500;49.856;20.290;2024-01-10T10:30:35;155.40;;;72.60;;
34234;SDS011;20500;49.856;20.290;2024-01-10T10:33:42;145.80;;;70.50;;
34234;SDS011;20500;49.856;20.290;2024-01-10T10:36:48;156.50;;;72.80;;
34234;SDS011;20500;49.856;20.290;2024-01-10T10:39:55;140.60;;;69.40;;
34234;SDS011;20500;49.856;20.290;2024-01-10T10:43:02;140.40;;;66.80;;
34234;SDS011;20500;49.856;20.290;2024-01-10T10:46:11;139.60;;;66.40;;
34234;SDS011;20500;49.856;20.290;2024-01-10T10:49:19;138.80;;;66.80;;
34234;SDS011;20500;49.856;20.290;2024-01-10T10:52:33;145.40;;;63.80;;
34234;SDS011;20500;49.856;20.290;2024-01-10T10:55:41;125.20;;;61.50;;
34234;SDS011;20500;49.856;20.290;2024-01-10T10:58:49;119.40;;;59.70;;
34234;SDS011;20500;49.856;20.290;2024-01-10T11:01:58;121.50;;;59.60;;
34234;SDS011;20500;49.856;20.290;2024-01-10T11:05:05;126.10;;;61.70;;
34234;SDS011;20500;49.856;20.290;2024-01-10T11:08:12;135.90;;;64.50;;
34234;SDS011;20500;49.856;20.290;2024-01-10T11:11:26;132.20;;;64.80;;
34234;SDS011;20500;49.856;20.290;2024-01-10T11:14:46;136.80;;;67.00;;
34234;SDS011;20500;49.856;20.290;2024-01-10T11:18:12;130.20;;;65.20;;
34234;SDS011;20500;49.856;20.290;2024-01-10T11:21:35;132.90;;;67.20;;
34234;SDS011;20500;49.856;20.290;2024-01-10T11:24:50;127.50;;;65.90;;
34234;SDS011;20500;49.856;20.290;2024-01-10T11:28:03;129.30;;;67.20;;
34234;SDS011;20500;49.856;20.290;2024-01-10T11:31:11;129.10;;;67.50;;
34234;SDS011;20500;49.856;20.290;2024-01-10T11:34:22;132.20;;;67.20;;
34234;SDS011;20500;49.856;20.290;2024-01-10T11:37:37;138.00;;;67.70;;
34234;SDS011;20500;49.856;20.290;2024-01-10T11:40:48;129.20;;;66.60;;
34234;SDS011;20500;49.856;20.290;2024-01-10T11:47:32;145.30;;;73.90;;
34234;SDS011;20500;49.856;20.290;2024-01-10T11:50:38;139.80;;;72.50;;
34234;SDS011;20500;49.856;20.290;2024-01-10T11:53:45;140.40;;;68.30;;
34234;SDS011;20500;49.856;20.290;2024-01-10T11:56:53;126.60;;;63.40;;
34234;SDS011;20500;49.856;20.290;2024-01-10T12:00:00;148.60;;;73.50;;
34234;SDS011;20500;49.856;20.290;2024-01-10T12:03:08;196.90;;;98.70;;
34234;SDS011;20500;49.856;20.290;2024-01-10T12:06:16;178.20;;;93.00;;
34234;SDS011;20500;49.856;20.290;2024-01-10T12:09:24;169.60;;;89.60;;
34234;SDS011;20500;49.856;20.290;2024-01-10T12:12:32;145.80;;;79.50;;
34234;SDS011;20500;49.856;20.290;2024-01-10T12:15:39;162.90;;;91.60;;
34234;SDS011;20500;49.856;20.290;2024-01-10T12:18:45;141.60;;;74.90;;
34234;SDS011;20500;49.856;20.290;2024-01-10T12:21:52;138.50;;;76.50;;
34234;SDS011;20500;49.856;20.290;2024-01-10T12:25:03;144.10;;;80.00;;
34234;SDS011;20500;49.856;20.290;2024-01-10T12:28:10;139.50;;;74.70;;
34234;SDS011;20500;49.856;20.290;2024-01-10T12:31:22;137.40;;;73.60;;
34234;SDS011;20500;49.856;20.290;2024-01-10T12:34:28;137.40;;;73.10;;
34234;SDS011;20500;49.856;20.290;2024-01-10T12:37:35;128.60;;;70.00;;
34234;SDS011;20500;49.856;20.290;2024-01-10T12:40:42;126.70;;;67.70;;
34234;SDS011;20500;49.856;20.290;2024-01-10T12:43:53;125.80;;;68.80;;
34234;SDS011;20500;49.856;20.290;2024-01-10T12:47:00;134.10;;;69.50;;
34234;SDS011;20500;49.856;20.290;2024-01-10T12:50:08;132.30;;;70.80;;
34234;SDS011;20500;49.856;20.290;2024-01-10T12:53:15;126.40;;;70.00;;
34234;SDS011;20500;49.856;20.290;2024-01-10T12:56:21;124.80;;;69.00;;
34234;SDS011;20500;49.856;20.290;2024-01-10T12:59:28;128.80;;;67.30;;
34234;SDS011;20500;49.856;20.290;2024-01-10T13:02:35;121.30;;;65.80;;
34234;SDS011;20500;49.856;20.290;2024-01-10T13:05:43;117.50;;;65.80;;
34234;SDS011;20500;49.856;20.290;2024-01-10T13:08:49;124.40;;;67.80;;
34234;SDS011;20500;49.856;20.290;2024-01-10T13:11:57;122.50;;;67.30;;
34234;SDS011;20500;49.856;20.290;2024-01-10T13:15:05;120.10;;;65.00;;
34234;SDS011;20500;49.856;20.290;2024-01-10T13:18:12;122.60;;;64.40;;
34234;SDS011;20500;49.856;20.290;2024-01-10T13:21:19;114.70;;;64.90;;
34234;SDS011;20500;49.856;20.290;2024-01-10T13:24:25;127.80;;;67.70;;
34234;SDS011;20500;49.856;20.290;2024-01-10T13:27:32;124.50;;;66.70;;
34234;SDS011;20500;49.856;20.290;2024-01-10T13:30:39;123.80;;;69.20;;
34234;SDS011;20500;49.856;20.290;2024-01-10T13:33:46;130.20;;;69.40;;
34234;SDS011;20500;49.856;20.290;2024-01-10T13:36:53;134.50;;;69.10;;
34234;SDS011;20500;49.856;20.290;2024-01-10T13:39:59;136.40;;;70.70;;
34234;SDS011;20500;49.856;20.290;2024-01-10T13:43:10;132.10;;;68.00;;
34234;SDS011;20500;49.856;20.290;2024-01-10T13:46:16;124.30;;;67.00;;
34234;SDS011;20500;49.856;20.290;2024-01-10T13:49:23;133.40;;;70.50;;
34234;SDS011;20500;49.856;20.290;2024-01-10T13:52:29;129.30;;;70.60;;
34234;SDS011;20500;49.856;20.290;2024-01-10T13:55:36;123.40;;;68.60;;
34234;SDS011;20500;49.856;20.290;2024-01-10T13:58:42;125.20;;;68.50;;
34234;SDS011;20500;49.856;20.290;2024-01-10T14:01:49;124.70;;;67.50;;
34234;SDS011;20500;49.856;20.290;2024-01-10T14:04:55;117.90;;;66.60;;
34234;SDS011;20500;49.856;20.290;2024-01-10T14:08:02;129.40;;;66.70;;
34234;SDS011;20500;49.856;20.290;2024-01-10T14:11:09;131.40;;;71.00;;
34234;SDS011;20500;49.856;20.290;2024-01-10T14:14:15;124.20;;;66.60;;
34234;SDS011;20500;49.856;20.290;2024-01-10T14:17:28;124.20;;;66.80;;
34234;SDS011;20500;49.856;20.290;2024-01-10T14:20:34;113.00;;;62.20;;
34234;SDS011;20500;49.856;20.290;2024-01-10T14:23:44;115.50;;;61.10;;
34234;SDS011;20500;49.856;20.290;2024-01-10T14:26:51;115.50;;;63.40;;
34234;SDS011;20500;49.856;20.290;2024-01-10T14:29:57;115.60;;;64.30;;
34234;SDS011;20500;49.856;20.290;2024-01-10T14:33:06;125.40;;;66.40;;
34234;SDS011;20500;49.856;20.290;2024-01-10T14:36:13;125.80;;;68.90;;
34234;SDS011;20500;49.856;20.290;2024-01-10T14:39:19;125.80;;;66.30;;
34234;SDS011;20500;49.856;20.290;2024-01-10T14:42:26;119.10;;;66.70;;
34234;SDS011;20500;49.856;20.290;2024-01-10T14:45:32;116.90;;;64.80;;
34234;SDS011;20500;49.856;20.290;2024-01-10T14:48:39;110.60;;;60.70;;
34234;SDS011;20500;49.856;20.290;2024-01-10T14:51:45;114.10;;;61.50;;
34234;SDS011;20500;49.856;20.290;2024-01-10T14:54:52;121.40;;;64.50;;
34234;SDS011;20500;49.856;20.290;2024-01-10T14:58:03;137.40;;;72.00;;
34234;SDS011;20500;49.856;20.290;2024-01-10T15:01:10;118.90;;;61.00;;
34234;SDS011;20500;49.856;20.290;2024-01-10T15:04:16;112.80;;;60.90;;
34234;SDS011;20500;49.856;20.290;2024-01-10T15:07:23;112.20;;;60.60;;
34234;SDS011;20500;49.856;20.290;2024-01-10T15:10:29;109.60;;;58.00;;
34234;SDS011;20500;49.856;20.290;2024-01-10T15:13:36;113.00;;;59.80;;
34234;SDS011;20500;49.856;20.290;2024-01-10T15:16:45;106.90;;;59.10;;
34234;SDS011;20500;49.856;20.290;2024-01-10T15:19:51;118.80;;;61.40;;
34234;SDS011;20500;49.856;20.290;2024-01-10T15:22:58;119.00;;;62.90;;
34234;SDS011;20500;49.856;20.290;2024-01-10T15:26:05;115.60;;;60.20;;
34234;SDS011;20500;49.856;20.290;2024-01-10T15:29:11;107.20;;;58.90;;
34234;SDS011;20500;49.856;20.290;2024-01-10T15:32:18;111.10;;;58.20;;
34234;SDS011;20500;49.856;20.290;2024-01-10T15:35:25;114.90;;;56.70;;
34234;SDS011;20500;49.856;20.290;2024-01-10T15:38:31;116.60;;;59.70;;
34234;SDS011;20500;49.856;20.290;2024-01-10T15:41:38;108.30;;;57.00;;
34234;SDS011;20500;49.856;20.290;2024-01-10T15:44:44;105.70;;;55.20;;
34234;SDS011;20500;49.856;20.290;2024-01-10T15:47:51;106.30;;;55.60;;
34234;SDS011;20500;49.856;20.290;2024-01-10T15:50:57;111.50;;;54.60;;
34234;SDS011;20500;49.856;20.290;2024-01-10T15:54:04;100.60;;;53.80;;
34234;SDS011;20500;49.856;20.290;2024-01-10T15:57:10;101.40;;;52.70;;
34234;SDS011;20500;49.856;20.290;2024-01-10T16:00:17;95.30;;;52.40;;
34234;SDS011;20500;49.856;20.290;2024-01-10T16:03:24;99.80;;;51.40;;
34234;SDS011;20500;49.856;20.290;2024-01-10T16:06:31;94.60;;;50.30;;
34234;SDS011;20500;49.856;20.290;2024-01-10T16:09:38;98.70;;;53.00;;
34234;SDS011;20500;49.856;20.290;2024-01-10T16:12:46;105.30;;;53.20;;
34234;SDS011;20500;49.856;20.290;2024-01-10T16:15:54;104.00;;;52.90;;
34234;SDS011;20500;49.856;20.290;2024-01-10T16:19:01;101.60;;;53.60;;
34234;SDS011;20500;49.856;20.290;2024-01-10T16:22:08;102.80;;;53.20;;
34234;SDS011;20500;49.856;20.290;2024-01-10T16:25:14;98.70;;;52.70;;
34234;SDS011;20500;49.856;20.290;2024-01-10T16:28:21;98.30;;;51.90;;
34234;SDS011;20500;49.856;20.290;2024-01-10T16:31:31;138.90;;;67.10;;
34234;SDS011;20500;49.856;20.290;2024-01-10T16:34:38;122.30;;;59.90;;
34234;SDS011;20500;49.856;20.290;2024-01-10T16:37:44;98.10;;;51.90;;
34234;SDS011;20500;49.856;20.290;2024-01-10T16:40:51;99.80;;;54.80;;
34234;SDS011;20500;49.856;20.290;2024-01-10T16:43:57;94.10;;;50.00;;
34234;SDS011;20500;49.856;20.290;2024-01-10T16:47:04;122.90;;;64.60;;
34234;SDS011;20500;49.856;20.290;2024-01-10T16:50:11;110.60;;;57.60;;
34234;SDS011;20500;49.856;20.290;2024-01-10T16:53:18;101.40;;;54.60;;
34234;SDS011;20500;49.856;20.290;2024-01-10T16:56:24;105.80;;;52.60;;
34234;SDS011;20500;49.856;20.290;2024-01-10T16:59:31;87.80;;;46.80;;
34234;SDS011;20500;49.856;20.290;2024-01-10T17:02:37;105.90;;;53.50;;
34234;SDS011;20500;49.856;20.290;2024-01-10T17:05:44;101.50;;;51.60;;
34234;SDS011;20500;49.856;20.290;2024-01-10T17:08:52;97.60;;;48.80;;
34234;SDS011;20500;49.856;20.290;2024-01-10T17:11:59;128.20;;;67.70;;
34234;SDS011;20500;49.856;20.290;2024-01-10T17:18:27;121.30;;;57.30;;
34234;SDS011;20500;49.856;20.290;2024-01-10T17:21:33;93.10;;;46.80;;
34234;SDS011;20500;49.856;20.290;2024-01-10T17:24:40;148.70;;;70.00;;
34234;SDS011;20500;49.856;20.290;2024-01-10T17:27:46;101.10;;;51.60;;
34234;SDS011;20500;49.856;20.290;2024-01-10T17:30:52;97.20;;;48.30;;
34234;SDS011;20500;49.856;20.290;2024-01-10T17:33:59;94.80;;;46.70;;
34234;SDS011;20500;49.856;20.290;2024-01-10T17:37:06;97.60;;;47.80;;
34234;SDS011;20500;49.856;20.290;2024-01-10T17:40:12;97.60;;;46.90;;
34234;SDS011;20500;49.856;20.290;2024-01-10T17:43:19;92.00;;;46.60;;
34234;SDS011;20500;49.856;20.290;2024-01-10T17:46:25;89.80;;;46.50;;
34234;SDS011;20500;49.856;20.290;2024-01-10T17:49:32;123.00;;;59.30;;